You are not logged in, Click here to log in
機場資訊:EHAM Welcome to Taiwan Airways 台灣虛擬航空
ICAO: EHAM Country: 荷蘭首都阿姆斯特丹
Latitude: 52.3105 Longitude: 4.76827
Total Arrivals: 25 Total Departures: 27
Latest Arrival: KL808 (RCTP-EHAM)Mori. Yang Latest Departure: KL1227 (EHAM-LFPG)ALAN. LIU
Scenery:
METAR : EHAM 211225Z 20009KT 150V230 9999 FEW009 BKN035 15/12 Q1015 NOSIG

阿姆斯特丹史基浦機場AMS